Hovedside
METAR-TAF:

METAR-TAF

Lufthavner :

Leknes lufthavn

Leknes, Norge

breddegrad: 68-09N, lengdegrad: 013-37E, høyde over havet: 2 m

Gjeldene værobservasjon

Denne rapporten ble laget for 29 minutter siden, klokken 15:50 UTC
Vind 16 kt fra Sør
Temperatur 10°C
Luftfuktighet 93%
Trykk 1012 hPa
Sikt 10 km eller mer
Få skyer i en høyde av 1000 ft
Spredte skyer i en høyde av 2000 ft
Brutte skyer i en høyde av 3000 ft
lett regn,

METAR: ENLK 241550Z 19016KT 9999 -RA FEW010 SCT020 BKN030 10/09 Q1012

Tid: 18:19 (16:19 UTC)


TAF: fraværende

Værobservasjoner og værvarsel for over 4000 flyplasser (METAR- og TAF-rapporter).

Tilgjengelige stasjoner er representert av de røde og gule prikkene på kartet.

Hold musepekeren over prikken for å se navnet på stasjonen.

Klikk så for å se værobservasjoner og -varsler.

For å forandre kartet kan du klikke på den grønne knappen med svart kryss for å zoome inn, på den grønne knappen med strek for å zoome ut, eller på de grønne pilene for å se tilstøtende kart.


METAR-TAF: